Time;durP1;ratioP1;P1;durP2;ratioP2;P2;SDS_P1;SDS_P2;PMS_P1;PMS_P2;Temp;Humidity;BMP_temperature;BMP_pressure;BME280_temperature;BME280_humidity;BME280_pressure;Samples;Min_cycle;Max_cycle;Signal;HPM_P1;HPM_P2
2023/04/24 00:00:09;;;;;;;;;;;;;;;;;;1031998;28;4077;-52
2023/04/24 00:00:48;;;;;;;;;;;;;;;;;;1034131;28;2932;-56
2023/04/24 00:01:29;;;;;;;;;;;;;;;;;;1033543;28;4026;-53
2023/04/24 00:02:00;;;;;;;;;;;;;;;;;;1033207;28;4062;-53
2023/04/24 00:02:31;;;;;;;;;;;;;;;;;;1024852;28;3000;-50
2023/04/24 00:03:02;;;;;;;;;;;;;;;;;;1024696;28;3956;-55
2023/04/24 00:03:33;;;;;;;;;;;;;;;;;;1026170;28;2979;-57
2023/04/24 00:04:03;;;;;;;;;;;;;;;;;;1024657;28;3954;-53
2023/04/24 00:04:34;;;;;;;;;;;;;;;;;;1031074;28;2680;-51
2023/04/24 00:05:05;;;;;;;;;;;;;;;;;;1030956;28;3808;-53
2023/04/24 00:05:35;;;;;;;;;;;;;;;;;;1035533;28;2910;-48
2023/04/24 00:06:07;;;;;;;;;;;;;;;;;;1035183;28;4030;-53
2023/04/24 00:06:38;;;;;;;;;;;;;;;;;;1034179;28;2986;-55
2023/04/24 00:07:09;;;;;;;;;;;;;;;;;;1033120;28;3794;-54
2023/04/24 00:07:40;;;;;;;;;;;;;;;;;;1034336;28;3188;-55
2023/04/24 00:08:10;;;;;;;;;;;;;;;;;;1033968;28;4071;-54
2023/04/24 00:08:40;;;;;;;;;;;;;;;;;;1033017;28;2960;-51
2023/04/24 00:09:10;;;;;;;;;;;;;;;;;;1033259;28;3866;-53
2023/04/24 00:09:41;;;;;;;;;;;;;;;;;;1034667;28;2723;-54
2023/04/24 00:10:12;;;;;;;;;;;;;;;;;;1032591;28;4372;-53
2023/04/24 00:10:42;;;;;;;;;;;;;;;;;;1031712;28;3230;-52
2023/04/24 00:11:12;;;;;;;;;;;;;;;;;;1028978;28;3899;-53
2023/04/24 00:11:42;;;;;;;;;;;;;;;;;;1029445;28;3010;-52
2023/04/24 00:12:13;;;;;;;;;;;;;;;;;;1027833;28;3846;-53
2023/04/24 00:12:44;;;;;;;;;;;;;;;;;;1032389;28;2963;-53
2023/04/24 00:13:14;;;;;;;;;;;;;;;;;;1034024;28;4009;-54
2023/04/24 00:13:44;;;;;;;;;;;;;;;;;;1034162;28;2942;-49
2023/04/24 00:14:15;;;;;;;;;;;;;;;;;;1033504;28;3838;-54
2023/04/24 00:14:45;;;;;;;;;;;;;;;;;;1033239;28;2953;-56
2023/04/24 00:15:16;;;;;;;;;;;;;;;;;;1034514;28;3945;-53
2023/04/24 00:15:47;;;;;;;;;;;;;;;;;;1034001;28;2861;-56
2023/04/24 00:16:17;;;;;;;;;;;;;;;;;;1032364;28;4356;-54
2023/04/24 00:16:47;;;;;;;;;;;;;;;;;;1033865;28;2943;-50
2023/04/24 00:17:20;;;;;;;;;;;;;;;;;;1034869;28;4150;-55
2023/04/24 00:17:53;;;;;;;;;;;;;;;;;;1034331;28;3262;-51
2023/04/24 00:18:23;;;;;;;;;;;;;;;;;;1034102;28;3765;-55
2023/04/24 00:18:53;;;;;;;;;;;;;;;;;;1033295;28;4023;-54
2023/04/24 00:19:23;;;;;;;;;;;;;;;;;;1033763;28;2949;-51
2023/04/24 00:19:58;;;;;;;;;;;;;;;;;;1033502;28;4214;-51
2023/04/24 00:20:29;;;;;;;;;;;;;;;;;;1033425;28;3015;-53
2023/04/24 00:20:59;;;;;;;;;;;;;;;;;;1032198;28;4296;-49
2023/04/24 00:21:30;;;;;;;;;;;;;;;;;;1030531;28;2992;-54
2023/04/24 00:22:00;;;;;;;;;;;;;;;;;;1032758;28;3872;-53
2023/04/24 00:22:30;;;;;;;;;;;;;;;;;;1032116;28;3290;-53
2023/04/24 00:23:01;;;;;;;;;;;;;;;;;;1032160;28;4220;-51
2023/04/24 00:23:31;;;;;;;;;;;;;;;;;;1035706;28;3359;-51
2023/04/24 00:24:01;;;;;;;;;;;;;;;;;;1034061;28;4044;-53
2023/04/24 00:24:32;;;;;;;;;;;;;;;;;;1033670;28;3210;-51
2023/04/24 00:25:02;;;;;;;;;;;;;;;;;;1034542;28;4107;-55
2023/04/24 00:25:33;;;;;;;;;;;;;;;;;;1035305;28;2968;-51
2023/04/24 00:26:03;;;;;;;;;;;;;;;;;;1033759;28;3979;-51
2023/04/24 00:26:33;;;;;;;;;;;;;;;;;;1035161;28;3347;-52
2023/04/24 00:27:04;;;;;;;;;;;;;;;;;;1034067;28;4019;-55
2023/04/24 00:27:36;;;;;;;;;;;;;;;;;;1035163;28;3129;-55
2023/04/24 00:28:07;;;;;;;;;;;;;;;;;;1034695;28;3925;-51
2023/04/24 00:28:37;;;;;;;;;;;;;;;;;;1033222;28;3477;-49
2023/04/24 00:29:07;;;;;;;;;;;;;;;;;;1034191;28;4239;-52
2023/04/24 00:29:37;;;;;;;;;;;;;;;;;;1034663;28;2863;-51
2023/04/24 00:30:08;;;;;;;;;;;;;;;;;;1032911;28;4021;-51
2023/04/24 00:30:38;;;;;;;;;;;;;;;;;;1033749;28;3267;-51
2023/04/24 00:31:08;;;;;;;;;;;;;;;;;;1034887;28;3940;-52
2023/04/24 00:31:39;;;;;;;;;;;;;;;;;;1034304;28;2804;-54
2023/04/24 00:32:10;;;;;;;;;;;;;;;;;;1032827;28;3781;-55
2023/04/24 00:32:40;;;;;;;;;;;;;;;;;;1034945;28;1665;-53
2023/04/24 00:33:11;;;;;;;;;;;;;;;;;;1034506;28;4034;-57
2023/04/24 00:33:41;;;;;;;;;;;;;;;;;;1033888;28;2827;-52
2023/04/24 00:34:12;;;;;;;;;;;;;;;;;;1034183;28;4059;-53
2023/04/24 00:34:42;;;;;;;;;;;;;;;;;;1035031;28;1897;-52
2023/04/24 00:35:12;;;;;;;;;;;;;;;;;;1032690;28;4159;-54
2023/04/24 00:35:43;;;;;;;;;;;;;;;;;;1033514;28;2762;-54
2023/04/24 00:36:13;;;;;;;;;;;;;;;;;;1033794;28;3873;-51
2023/04/24 00:36:43;;;;;;;;;;;;;;;;;;1033087;28;2924;-54
2023/04/24 00:37:14;;;;;;;;;;;;;;;;;;1032165;28;3776;-53
2023/04/24 00:37:44;;;;;;;;;;;;;;;;;;1029918;28;3240;-52
2023/04/24 00:38:15;;;;;;;;;;;;;;;;;;1030127;28;3868;-52
2023/04/24 00:38:45;;;;;;;;;;;;;;;;;;1030358;28;2920;-50
2023/04/24 00:39:15;;;;;;;;;;;;;;;;;;1026113;28;4584;-53
2023/04/24 00:39:46;;;;;;;;;;;;;;;;;;1029731;28;2960;-52
2023/04/24 00:40:16;;;;;;;;;;;;;;;;;;1029716;28;4403;-56
2023/04/24 00:40:47;;;;;;;;;;;;;;;;;;1030498;28;1882;-54
2023/04/24 00:41:17;;;;;;;;;;;;;;;;;;1034069;28;3813;-52
2023/04/24 00:41:48;;;;;;;;;;;;;;;;;;1034305;28;1764;-52
2023/04/24 00:42:18;;;;;;;;;;;;;;;;;;1033918;28;3811;-56
2023/04/24 00:42:49;;;;;;;;;;;;;;;;;;1035167;28;1669;-55
2023/04/24 00:43:19;;;;;;;;;;;;;;;;;;1034610;28;3811;-53
2023/04/24 00:43:49;;;;;;;;;;;;;;;;;;1034231;28;2876;-50
2023/04/24 00:44:20;;;;;;;;;;;;;;;;;;1034677;28;3907;-52
2023/04/24 00:44:50;;;;;;;;;;;;;;;;;;1035967;28;3214;-50
2023/04/24 00:45:21;;;;;;;;;;;;;;;;;;1032689;28;3870;-49
2023/04/24 00:45:51;;;;;;;;;;;;;;;;;;1034655;28;2955;-54
2023/04/24 00:46:21;;;;;;;;;;;;;;;;;;1033236;28;3827;-54
2023/04/24 00:46:54;;;;;;;;;;;;;;;;;;1036545;28;1655;-51
2023/04/24 00:47:25;;;;;;;;;;;;;;;;;;1035572;28;3832;-55
2023/04/24 00:47:55;;;;;;;;;;;;;;;;;;1035013;28;4115;-51
2023/04/24 00:48:26;;;;;;;;;;;;;;;;;;1035286;28;1868;-52
2023/04/24 00:48:56;;;;;;;;;;;;;;;;;;1033635;28;4028;-52
2023/04/24 00:49:27;;;;;;;;;;;;;;;;;;1034382;28;2992;-53
2023/04/24 00:49:57;;;;;;;;;;;;;;;;;;1034328;28;3790;-52
2023/04/24 00:50:28;;;;;;;;;;;;;;;;;;1034360;28;1962;-53
2023/04/24 00:50:58;;;;;;;;;;;;;;;;;;1034081;28;4150;-53
2023/04/24 00:51:30;;;;;;;;;;;;;;;;;;1034978;28;3144;-50
2023/04/24 00:52:01;;;;;;;;;;;;;;;;;;1033232;28;3935;-49
2023/04/24 00:52:32;;;;;;;;;;;;;;;;;;1034389;28;2947;-52
2023/04/24 00:53:02;;;;;;;;;;;;;;;;;;1034058;28;3805;-56
2023/04/24 00:53:33;;;;;;;;;;;;;;;;;;1035040;28;1917;-50
2023/04/24 00:54:03;;;;;;;;;;;;;;;;;;1028949;28;3868;-49
2023/04/24 00:54:33;;;;;;;;;;;;;;;;;;1030932;28;1751;-51
2023/04/24 00:55:03;;;;;;;;;;;;;;;;;;1028951;28;4820;-53
2023/04/24 00:55:35;;;;;;;;;;;;;;;;;;1030240;28;2977;-53
2023/04/24 00:56:05;;;;;;;;;;;;;;;;;;1029610;28;4061;-54
2023/04/24 00:56:35;;;;;;;;;;;;;;;;;;1030236;28;2953;-51
2023/04/24 00:57:06;;;;;;;;;;;;;;;;;;1031259;28;4413;-52
2023/04/24 00:57:37;;;;;;;;;;;;;;;;;;1030309;28;2940;-51
2023/04/24 00:58:07;;;;;;;;;;;;;;;;;;1030565;28;3905;-52
2023/04/24 00:58:38;;;;;;;;;;;;;;;;;;1029940;28;2803;-53
2023/04/24 00:59:08;;;;;;;;;;;;;;;;;;1034694;28;3850;-53
2023/04/24 00:59:40;;;;;;;;;;;;;;;;;;1035930;28;2908;-55
2023/04/24 01:00:11;;;;;;;;;;;;;;;;;;1033665;28;3844;-52
2023/04/24 01:00:42;;;;;;;;;;;;;;;;;;1035712;28;1999;-52
2023/04/24 01:01:12;;;;;;;;;;;;;;;;;;1034645;28;4012;-49
2023/04/24 01:01:43;;;;;;;;;;;;;;;;;;1034061;28;3017;-52
2023/04/24 01:02:13;;;;;;;;;;;;;;;;;;1034116;28;4114;-51
2023/04/24 01:02:44;;;;;;;;;;;;;;;;;;1034960;28;1797;-55
2023/04/24 01:03:15;;;;;;;;;;;;;;;;;;1035032;28;4005;-49
2023/04/24 01:03:45;;;;;;;;;;;;;;;;;;1033771;28;2810;-51
2023/04/24 01:04:17;;;;;;;;;;;;;;;;;;1035101;28;5037;-52
2023/04/24 01:04:49;;;;;;;;;;;;;;;;;;1035379;28;1892;-55
2023/04/24 01:05:19;;;;;;;;;;;;;;;;;;1034916;28;3759;-52
2023/04/24 01:05:50;;;;;;;;;;;;;;;;;;1034831;28;1738;-56
2023/04/24 01:06:21;;;;;;;;;;;;;;;;;;1035128;28;3732;-49
2023/04/24 01:06:51;;;;;;;;;;;;;;;;;;1035294;28;1764;-53
2023/04/24 01:07:22;;;;;;;;;;;;;;;;;;1034925;28;4912;-54
2023/04/24 01:07:52;;;;;;;;;;;;;;;;;;1034755;28;3798;-49
2023/04/24 01:08:23;;;;;;;;;;;;;;;;;;1034593;28;1679;-53
2023/04/24 01:08:55;;;;;;;;;;;;;;;;;;1034432;28;3907;-52
2023/04/24 01:09:25;;;;;;;;;;;;;;;;;;1035005;28;1833;-50
2023/04/24 01:09:55;;;;;;;;;;;;;;;;;;1033829;28;4171;-56
2023/04/24 01:10:27;;;;;;;;;;;;;;;;;;1034390;28;1895;-51
2023/04/24 01:10:57;;;;;;;;;;;;;;;;;;1034238;28;4084;-48
2023/04/24 01:11:28;;;;;;;;;;;;;;;;;;1034974;28;1501;-53
2023/04/24 01:12:00;;;;;;;;;;;;;;;;;;1034329;28;4041;-53
2023/04/24 01:12:30;;;;;;;;;;;;;;;;;;1035149;28;1846;-48
2023/04/24 01:13:00;;;;;;;;;;;;;;;;;;1034732;28;3843;-53
2023/04/24 01:13:31;;;;;;;;;;;;;;;;;;1034458;28;3048;-50
2023/04/24 01:14:02;;;;;;;;;;;;;;;;;;1032115;28;3815;-55
2023/04/24 01:14:33;;;;;;;;;;;;;;;;;;1026717;28;2951;-50
2023/04/24 01:15:03;;;;;;;;;;;;;;;;;;1024770;28;3892;-52
2023/04/24 01:15:34;;;;;;;;;;;;;;;;;;1027026;28;3186;-51
2023/04/24 01:16:04;;;;;;;;;;;;;;;;;;1025482;28;4057;-47
2023/04/24 01:16:35;;;;;;;;;;;;;;;;;;1033963;28;2839;-54
2023/04/24 01:17:06;;;;;;;;;;;;;;;;;;1034964;28;4008;-50
2023/04/24 01:17:36;;;;;;;;;;;;;;;;;;1033941;28;3025;-51
2023/04/24 01:18:07;;;;;;;;;;;;;;;;;;1035079;28;4049;-50
2023/04/24 01:18:38;;;;;;;;;;;;;;;;;;1035398;28;1705;-52
2023/04/24 01:19:09;;;;;;;;;;;;;;;;;;1033920;28;4162;-53
2023/04/24 01:19:39;;;;;;;;;;;;;;;;;;1034101;28;2970;-49
2023/04/24 01:20:10;;;;;;;;;;;;;;;;;;1033671;28;3997;-50
2023/04/24 01:20:41;;;;;;;;;;;;;;;;;;1035141;28;1946;-52
2023/04/24 01:21:14;;;;;;;;;;;;;;;;;;1034365;28;3974;-51
2023/04/24 01:21:47;;;;;;;;;;;;;;;;;;1034081;28;3200;-56
2023/04/24 01:22:17;;;;;;;;;;;;;;;;;;1032313;28;4029;-51
2023/04/24 01:22:47;;;;;;;;;;;;;;;;;;1035128;28;1714;-50
2023/04/24 01:23:18;;;;;;;;;;;;;;;;;;1034794;28;3954;-52
2023/04/24 01:23:48;;;;;;;;;;;;;;;;;;1034373;28;3137;-51
2023/04/24 01:24:19;;;;;;;;;;;;;;;;;;1034025;28;4355;-47
2023/04/24 01:24:49;;;;;;;;;;;;;;;;;;1033899;28;2944;-54
2023/04/24 01:25:20;;;;;;;;;;;;;;;;;;1033640;28;3812;-54
2023/04/24 01:25:51;;;;;;;;;;;;;;;;;;1034719;28;1773;-52
2023/04/24 01:26:21;;;;;;;;;;;;;;;;;;1033837;28;4030;-50
2023/04/24 01:26:51;;;;;;;;;;;;;;;;;;1033294;28;3094;-51
2023/04/24 01:27:21;;;;;;;;;;;;;;;;;;1032251;28;4025;-55
2023/04/24 01:27:52;;;;;;;;;;;;;;;;;;1034690;28;3216;-51
2023/04/24 01:28:22;;;;;;;;;;;;;;;;;;1033780;28;3712;-53
2023/04/24 01:28:53;;;;;;;;;;;;;;;;;;1033464;28;3994;-51
2023/04/24 01:29:23;;;;;;;;;;;;;;;;;;1034274;28;3186;-52
2023/04/24 01:29:54;;;;;;;;;;;;;;;;;;1033789;28;4111;-51
2023/04/24 01:30:24;;;;;;;;;;;;;;;;;;1034376;28;3062;-51
2023/04/24 01:30:55;;;;;;;;;;;;;;;;;;1034409;28;4018;-50
2023/04/24 01:31:26;;;;;;;;;;;;;;;;;;1034297;28;3037;-49
2023/04/24 01:31:58;;;;;;;;;;;;;;;;;;1033405;28;3809;-54
2023/04/24 01:32:28;;;;;;;;;;;;;;;;;;1035278;28;1659;-53
2023/04/24 01:32:59;;;;;;;;;;;;;;;;;;1029567;28;3927;-52
2023/04/24 01:33:29;;;;;;;;;;;;;;;;;;1030271;28;2936;-52
2023/04/24 01:34:00;;;;;;;;;;;;;;;;;;1028503;28;4288;-53
2023/04/24 01:34:30;;;;;;;;;;;;;;;;;;1030650;28;1699;-55
2023/04/24 01:35:01;;;;;;;;;;;;;;;;;;1033377;28;4116;-56
2023/04/24 01:35:32;;;;;;;;;;;;;;;;;;1035093;28;1738;-56
2023/04/24 01:36:02;;;;;;;;;;;;;;;;;;1034337;28;4012;-52
2023/04/24 01:36:34;;;;;;;;;;;;;;;;;;1034069;28;2818;-52
2023/04/24 01:37:05;;;;;;;;;;;;;;;;;;1032371;28;4126;-51
2023/04/24 01:37:37;;;;;;;;;;;;;;;;;;1030737;28;2959;-51
2023/04/24 01:38:07;;;;;;;;;;;;;;;;;;1029742;28;3821;-50
2023/04/24 01:38:37;;;;;;;;;;;;;;;;;;1029280;28;2956;-49
2023/04/24 01:39:08;;;;;;;;;;;;;;;;;;1030060;28;4062;-48
2023/04/24 01:39:38;;;;;;;;;;;;;;;;;;1035110;28;1677;-53
2023/04/24 01:40:08;;;;;;;;;;;;;;;;;;1034249;28;3987;-55
2023/04/24 01:40:39;;;;;;;;;;;;;;;;;;1034475;28;3036;-50
2023/04/24 01:41:09;;;;;;;;;;;;;;;;;;1034706;28;4397;-54
2023/04/24 01:41:39;;;;;;;;;;;;;;;;;;1034406;28;1788;-51
2023/04/24 01:42:10;;;;;;;;;;;;;;;;;;1035257;28;3812;-51
2023/04/24 01:42:41;;;;;;;;;;;;;;;;;;1033263;28;2885;-51
2023/04/24 01:43:11;;;;;;;;;;;;;;;;;;1030628;28;3954;-55
2023/04/24 01:43:42;;;;;;;;;;;;;;;;;;1030128;28;1951;-51
2023/04/24 01:44:12;;;;;;;;;;;;;;;;;;1029251;28;4047;-52
2023/04/24 01:44:43;;;;;;;;;;;;;;;;;;1030432;28;3236;-56
2023/04/24 01:45:13;;;;;;;;;;;;;;;;;;1035225;28;3925;-55
2023/04/24 01:45:43;;;;;;;;;;;;;;;;;;1033792;28;2901;-49
2023/04/24 01:46:14;;;;;;;;;;;;;;;;;;1034152;28;4113;-50
2023/04/24 01:46:44;;;;;;;;;;;;;;;;;;1033729;28;3148;-53
2023/04/24 01:47:15;;;;;;;;;;;;;;;;;;1034610;28;4006;-54
2023/04/24 01:47:45;;;;;;;;;;;;;;;;;;1034440;28;2857;-51
2023/04/24 01:48:16;;;;;;;;;;;;;;;;;;1030519;28;3895;-50
2023/04/24 01:48:46;;;;;;;;;;;;;;;;;;1029208;28;2908;-53
2023/04/24 01:49:16;;;;;;;;;;;;;;;;;;1030219;28;4170;-56
2023/04/24 01:49:47;;;;;;;;;;;;;;;;;;1030819;28;1714;-51
2023/04/24 01:50:18;;;;;;;;;;;;;;;;;;1034634;28;3815;-53
2023/04/24 01:50:48;;;;;;;;;;;;;;;;;;1035325;28;1919;-52
2023/04/24 01:51:18;;;;;;;;;;;;;;;;;;1033850;28;3891;-50
2023/04/24 01:51:49;;;;;;;;;;;;;;;;;;1035306;28;1772;-49
2023/04/24 01:52:19;;;;;;;;;;;;;;;;;;1032965;28;3767;-51
2023/04/24 01:52:49;;;;;;;;;;;;;;;;;;1033693;28;3025;-54
2023/04/24 01:53:20;;;;;;;;;;;;;;;;;;1034099;28;3953;-51
2023/04/24 01:53:50;;;;;;;;;;;;;;;;;;1034790;28;1866;-51
2023/04/24 01:54:20;;;;;;;;;;;;;;;;;;1033158;28;3699;-54
2023/04/24 01:54:52;;;;;;;;;;;;;;;;;;1035724;28;1670;-53
2023/04/24 01:55:22;;;;;;;;;;;;;;;;;;1034138;28;3924;-50
2023/04/24 01:55:52;;;;;;;;;;;;;;;;;;1036000;28;3862;-55
2023/04/24 01:56:23;;;;;;;;;;;;;;;;;;1034613;28;1837;-50
2023/04/24 01:56:53;;;;;;;;;;;;;;;;;;1033627;28;3782;-51
2023/04/24 01:57:23;;;;;;;;;;;;;;;;;;1034524;28;3218;-54
2023/04/24 01:57:55;;;;;;;;;;;;;;;;;;1034224;28;4036;-48
2023/04/24 01:58:26;;;;;;;;;;;;;;;;;;1034165;28;3050;-51
2023/04/24 01:58:57;;;;;;;;;;;;;;;;;;1029462;28;4103;-53
2023/04/24 01:59:27;;;;;;;;;;;;;;;;;;1029379;28;2931;-49
2023/04/24 01:59:58;;;;;;;;;;;;;;;;;;1030433;28;3909;-57
2023/04/24 02:00:28;;;;;;;;;;;;;;;;;;1029659;28;3020;-49
2023/04/24 02:01:00;;;;;;;;;;;;;;;;;;1032665;28;4054;-52
2023/04/24 02:01:36;;;;;;;;;;;;;;;;;;1034426;28;3240;-52
2023/04/24 02:02:07;;;;;;;;;;;;;;;;;;1031553;28;4077;-53
2023/04/24 02:02:38;;;;;;;;;;;;;;;;;;1034374;28;1812;-54
2023/04/24 02:03:09;;;;;;;;;;;;;;;;;;1033678;28;3850;-51
2023/04/24 02:03:39;;;;;;;;;;;;;;;;;;1033537;28;3043;-52
2023/04/24 02:04:09;;;;;;;;;;;;;;;;;;1033119;28;3868;-55
2023/04/24 02:04:39;;;;;;;;;;;;;;;;;;1033612;28;2961;-52
2023/04/24 02:05:10;;;;;;;;;;;;;;;;;;1030655;28;3909;-49
2023/04/24 02:05:43;;;;;;;;;;;;;;;;;;1030783;28;3124;-53
2023/04/24 02:06:13;;;;;;;;;;;;;;;;;;1030137;28;5013;-46
2023/04/24 02:06:44;;;;;;;;;;;;;;;;;;1031459;28;2984;-53
2023/04/24 02:07:14;;;;;;;;;;;;;;;;;;1033908;28;4037;-49
2023/04/24 02:07:44;;;;;;;;;;;;;;;;;;1034134;28;2941;-51
2023/04/24 02:08:15;;;;;;;;;;;;;;;;;;1033074;28;4036;-51
2023/04/24 02:08:45;;;;;;;;;;;;;;;;;;1034839;28;1690;-51
2023/04/24 02:09:15;;;;;;;;;;;;;;;;;;1034209;28;3791;-48
2023/04/24 02:09:46;;;;;;;;;;;;;;;;;;1034093;28;2944;-51
2023/04/24 02:10:16;;;;;;;;;;;;;;;;;;1034232;28;3997;-54
2023/04/24 02:10:46;;;;;;;;;;;;;;;;;;1034540;28;2001;-51
2023/04/24 02:11:17;;;;;;;;;;;;;;;;;;1034198;28;4259;-53
2023/04/24 02:11:47;;;;;;;;;;;;;;;;;;1034802;28;2255;-57
2023/04/24 02:12:17;;;;;;;;;;;;;;;;;;1033883;28;3799;-53
2023/04/24 02:12:47;;;;;;;;;;;;;;;;;;1034549;28;2917;-54
2023/04/24 02:13:18;;;;;;;;;;;;;;;;;;1032858;28;4137;-50
2023/04/24 02:13:48;;;;;;;;;;;;;;;;;;1034220;28;1857;-48
2023/04/24 02:14:18;;;;;;;;;;;;;;;;;;1034903;28;3918;-51
2023/04/24 02:14:49;;;;;;;;;;;;;;;;;;1031961;28;2996;-53
2023/04/24 02:15:19;;;;;;;;;;;;;;;;;;1033796;28;3852;-54
2023/04/24 02:15:49;;;;;;;;;;;;;;;;;;1034672;28;1824;-51
2023/04/24 02:16:20;;;;;;;;;;;;;;;;;;1034162;28;3845;-51
2023/04/24 02:16:50;;;;;;;;;;;;;;;;;;1034778;28;1851;-51
2023/04/24 02:17:20;;;;;;;;;;;;;;;;;;1034149;28;3792;-51
2023/04/24 02:17:50;;;;;;;;;;;;;;;;;;1033695;28;3157;-53
2023/04/24 02:18:22;;;;;;;;;;;;;;;;;;1034507;28;3926;-50
2023/04/24 02:18:52;;;;;;;;;;;;;;;;;;1034840;28;4052;-48
2023/04/24 02:19:23;;;;;;;;;;;;;;;;;;1033198;28;3016;-51
2023/04/24 02:19:53;;;;;;;;;;;;;;;;;;1034644;28;3780;-52
2023/04/24 02:20:23;;;;;;;;;;;;;;;;;;1034678;28;1830;-51
2023/04/24 02:20:54;;;;;;;;;;;;;;;;;;1033465;28;3881;-51
2023/04/24 02:21:25;;;;;;;;;;;;;;;;;;1033819;28;2927;-52
2023/04/24 02:21:55;;;;;;;;;;;;;;;;;;1033121;28;3812;-51
2023/04/24 02:22:25;;;;;;;;;;;;;;;;;;1033043;28;3799;-48
2023/04/24 02:22:56;;;;;;;;;;;;;;;;;;1033448;28;3932;-53
2023/04/24 02:23:27;;;;;;;;;;;;;;;;;;1031560;28;3488;-54
2023/04/24 02:23:57;;;;;;;;;;;;;;;;;;1033144;28;3883;-54
2023/04/24 02:24:27;;;;;;;;;;;;;;;;;;1034616;28;1946;-53
2023/04/24 02:24:57;;;;;;;;;;;;;;;;;;1032694;28;3793;-50
2023/04/24 02:25:28;;;;;;;;;;;;;;;;;;1034677;28;3438;-48
2023/04/24 02:25:59;;;;;;;;;;;;;;;;;;1034483;28;3845;-53
2023/04/24 02:26:31;;;;;;;;;;;;;;;;;;1033308;28;2813;-54
2023/04/24 02:27:02;;;;;;;;;;;;;;;;;;1034869;28;3948;-51
2023/04/24 02:27:32;;;;;;;;;;;;;;;;;;1034923;28;3315;-55
2023/04/24 02:28:03;;;;;;;;;;;;;;;;;;1033342;28;4456;-50
2023/04/24 02:28:33;;;;;;;;;;;;;;;;;;1035075;28;1597;-55
2023/04/24 02:29:03;;;;;;;;;;;;;;;;;;1033168;28;3789;-53
2023/04/24 02:29:34;;;;;;;;;;;;;;;;;;1034877;28;3285;-50
2023/04/24 02:30:04;;;;;;;;;;;;;;;;;;1032692;28;4050;-50
2023/04/24 02:30:35;;;;;;;;;;;;;;;;;;1034356;28;2973;-52
2023/04/24 02:31:06;;;;;;;;;;;;;;;;;;1033654;28;4022;-54
2023/04/24 02:31:36;;;;;;;;;;;;;;;;;;1034943;28;1688;-52
2023/04/24 02:32:06;;;;;;;;;;;;;;;;;;1033719;28;3985;-52
2023/04/24 02:32:36;;;;;;;;;;;;;;;;;;1032629;28;3205;-53
2023/04/24 02:33:07;;;;;;;;;;;;;;;;;;1033679;28;3930;-49
2023/04/24 02:33:37;;;;;;;;;;;;;;;;;;1034337;28;2355;-54
2023/04/24 02:34:07;;;;;;;;;;;;;;;;;;1033228;28;3861;-52
2023/04/24 02:34:38;;;;;;;;;;;;;;;;;;1034134;28;2983;-52
2023/04/24 02:35:08;;;;;;;;;;;;;;;;;;1032749;28;4044;-53
2023/04/24 02:35:38;;;;;;;;;;;;;;;;;;1036040;28;3000;-54
2023/04/24 02:36:09;;;;;;;;;;;;;;;;;;1033009;28;4025;-49
2023/04/24 02:36:39;;;;;;;;;;;;;;;;;;1034811;28;1710;-51
2023/04/24 02:37:09;;;;;;;;;;;;;;;;;;1033356;28;3911;-55
2023/04/24 02:37:40;;;;;;;;;;;;;;;;;;1034880;28;3273;-52
2023/04/24 02:38:10;;;;;;;;;;;;;;;;;;1032663;28;4274;-48
2023/04/24 02:38:40;;;;;;;;;;;;;;;;;;1033253;28;3275;-51
2023/04/24 02:39:11;;;;;;;;;;;;;;;;;;1034125;28;3762;-49
2023/04/24 02:39:41;;;;;;;;;;;;;;;;;;1034135;28;3037;-52
2023/04/24 02:40:11;;;;;;;;;;;;;;;;;;1033421;28;3822;-53
2023/04/24 02:40:42;;;;;;;;;;;;;;;;;;1033045;28;2973;-53
2023/04/24 02:41:12;;;;;;;;;;;;;;;;;;1035072;28;3780;-49
2023/04/24 02:41:42;;;;;;;;;;;;;;;;;;1033669;28;2842;-54
2023/04/24 02:42:13;;;;;;;;;;;;;;;;;;1033879;28;3925;-55
2023/04/24 02:42:43;;;;;;;;;;;;;;;;;;1032771;28;3116;-51
2023/04/24 02:43:13;;;;;;;;;;;;;;;;;;1034679;28;3946;-51
2023/04/24 02:43:44;;;;;;;;;;;;;;;;;;1033922;28;2027;-52
2023/04/24 02:44:14;;;;;;;;;;;;;;;;;;1033968;28;4038;-54
2023/04/24 02:44:44;;;;;;;;;;;;;;;;;;1033160;28;2590;-55
2023/04/24 02:45:15;;;;;;;;;;;;;;;;;;1033188;28;3948;-52
2023/04/24 02:45:46;;;;;;;;;;;;;;;;;;1034203;28;3104;-55
2023/04/24 02:46:16;;;;;;;;;;;;;;;;;;1034427;28;3997;-54
2023/04/24 02:46:46;;;;;;;;;;;;;;;;;;1035021;28;2783;-54
2023/04/24 02:47:17;;;;;;;;;;;;;;;;;;1032480;28;4048;-53
2023/04/24 02:47:47;;;;;;;;;;;;;;;;;;1034244;28;2973;-54
2023/04/24 02:48:20;;;;;;;;;;;;;;;;;;1034053;28;4047;-51
2023/04/24 02:48:50;;;;;;;;;;;;;;;;;;1035033;28;1680;-52
2023/04/24 02:49:21;;;;;;;;;;;;;;;;;;1033992;28;4323;-55
2023/04/24 02:49:51;;;;;;;;;;;;;;;;;;1034585;28;1979;-52
2023/04/24 02:50:21;;;;;;;;;;;;;;;;;;1031449;28;3791;-53
2023/04/24 02:50:51;;;;;;;;;;;;;;;;;;1033622;28;2922;-56
2023/04/24 02:51:22;;;;;;;;;;;;;;;;;;1033454;28;3729;-48
2023/04/24 02:51:52;;;;;;;;;;;;;;;;;;1034676;28;1714;-54
2023/04/24 02:52:22;;;;;;;;;;;;;;;;;;1032266;28;4010;-55
2023/04/24 02:52:53;;;;;;;;;;;;;;;;;;1033565;28;3895;-49
2023/04/24 02:53:23;;;;;;;;;;;;;;;;;;1034111;28;3536;-51
2023/04/24 02:53:53;;;;;;;;;;;;;;;;;;1028428;28;4051;-52
2023/04/24 02:54:24;;;;;;;;;;;;;;;;;;1027101;28;3019;-51
2023/04/24 02:54:54;;;;;;;;;;;;;;;;;;1028208;28;4286;-53
2023/04/24 02:55:24;;;;;;;;;;;;;;;;;;1029000;28;3325;-55
2023/04/24 02:55:55;;;;;;;;;;;;;;;;;;1033888;28;3833;-53
2023/04/24 02:56:25;;;;;;;;;;;;;;;;;;1033346;28;3118;-52
2023/04/24 02:56:56;;;;;;;;;;;;;;;;;;1033305;28;3981;-51
2023/04/24 02:57:26;;;;;;;;;;;;;;;;;;1032265;28;2955;-57
2023/04/24 02:57:57;;;;;;;;;;;;;;;;;;1031258;28;4064;-53
2023/04/24 02:58:27;;;;;;;;;;;;;;;;;;1030468;28;1711;-51
2023/04/24 02:58:57;;;;;;;;;;;;;;;;;;1029690;28;3889;-54
2023/04/24 02:59:28;;;;;;;;;;;;;;;;;;1029382;28;2876;-53
2023/04/24 02:59:59;;;;;;;;;;;;;;;;;;1029031;28;4225;-51
2023/04/24 03:00:30;;;;;;;;;;;;;;;;;;1032696;28;3011;-53
2023/04/24 03:01:00;;;;;;;;;;;;;;;;;;1033241;28;3795;-50
2023/04/24 03:01:30;;;;;;;;;;;;;;;;;;1034974;28;3290;-56
2023/04/24 03:02:01;;;;;;;;;;;;;;;;;;1034453;28;4051;-54
2023/04/24 03:02:31;;;;;;;;;;;;;;;;;;1034454;28;3052;-50
2023/04/24 03:03:01;;;;;;;;;;;;;;;;;;1034448;28;3890;-50
2023/04/24 03:03:32;;;;;;;;;;;;;;;;;;1032968;28;2987;-56
2023/04/24 03:04:02;;;;;;;;;;;;;;;;;;1034291;28;3946;-51
2023/04/24 03:04:32;;;;;;;;;;;;;;;;;;1033050;28;3079;-52
2023/04/24 03:05:04;;;;;;;;;;;;;;;;;;1030362;28;4047;-55
2023/04/24 03:05:34;;;;;;;;;;;;;;;;;;1029976;28;1769;-50
2023/04/24 03:06:05;;;;;;;;;;;;;;;;;;1029554;28;3788;-53
2023/04/24 03:06:35;;;;;;;;;;;;;;;;;;1029382;28;3388;-51
2023/04/24 03:07:06;;;;;;;;;;;;;;;;;;1034426;28;5062;-49
2023/04/24 03:07:37;;;;;;;;;;;;;;;;;;1033823;28;2845;-53
2023/04/24 03:08:07;;;;;;;;;;;;;;;;;;1033446;28;3823;-49
2023/04/24 03:08:37;;;;;;;;;;;;;;;;;;1034269;28;2250;-52
2023/04/24 03:09:07;;;;;;;;;;;;;;;;;;1034051;28;3797;-54
2023/04/24 03:09:38;;;;;;;;;;;;;;;;;;1034096;28;1763;-53
2023/04/24 03:10:08;;;;;;;;;;;;;;;;;;1027720;28;3975;-49
2023/04/24 03:10:39;;;;;;;;;;;;;;;;;;1028205;28;3393;-51
2023/04/24 03:11:09;;;;;;;;;;;;;;;;;;1029843;28;3775;-52
2023/04/24 03:11:40;;;;;;;;;;;;;;;;;;1029886;28;2967;-56
2023/04/24 03:12:10;;;;;;;;;;;;;;;;;;1033798;28;3788;-48
2023/04/24 03:12:41;;;;;;;;;;;;;;;;;;1034268;28;2626;-50
2023/04/24 03:13:11;;;;;;;;;;;;;;;;;;1033167;28;3805;-49
2023/04/24 03:13:41;;;;;;;;;;;;;;;;;;1033346;28;2799;-50
2023/04/24 03:14:11;;;;;;;;;;;;;;;;;;1032219;28;4221;-51
2023/04/24 03:14:42;;;;;;;;;;;;;;;;;;1033484;28;2969;-48
2023/04/24 03:15:12;;;;;;;;;;;;;;;;;;1033050;28;4023;-54
2023/04/24 03:15:42;;;;;;;;;;;;;;;;;;1033980;28;3215;-51
2023/04/24 03:16:13;;;;;;;;;;;;;;;;;;1034028;28;3774;-52
2023/04/24 03:16:43;;;;;;;;;;;;;;;;;;1033576;28;3071;-56
2023/04/24 03:17:13;;;;;;;;;;;;;;;;;;1033927;28;4049;-52
2023/04/24 03:17:43;;;;;;;;;;;;;;;;;;1034634;28;1712;-56
2023/04/24 03:18:14;;;;;;;;;;;;;;;;;;1033611;28;3773;-55
2023/04/24 03:18:44;;;;;;;;;;;;;;;;;;1027340;28;2912;-52
2023/04/24 03:19:14;;;;;;;;;;;;;;;;;;1026237;28;3957;-55
2023/04/24 03:19:45;;;;;;;;;;;;;;;;;;1025358;28;2750;-52
2023/04/24 03:20:15;;;;;;;;;;;;;;;;;;1025768;28;4031;-54
2023/04/24 03:20:46;;;;;;;;;;;;;;;;;;1029488;28;2908;-52
2023/04/24 03:21:16;;;;;;;;;;;;;;;;;;1033709;28;3767;-54
2023/04/24 03:21:47;;;;;;;;;;;;;;;;;;1033265;28;3172;-55
2023/04/24 03:22:17;;;;;;;;;;;;;;;;;;1033950;28;4409;-50
2023/04/24 03:22:47;;;;;;;;;;;;;;;;;;1035184;28;2929;-53
2023/04/24 03:23:17;;;;;;;;;;;;;;;;;;1033926;28;4039;-54
2023/04/24 03:23:48;;;;;;;;;;;;;;;;;;1032589;28;3570;-55
2023/04/24 03:24:18;;;;;;;;;;;;;;;;;;1035439;28;3854;-52
2023/04/24 03:24:48;;;;;;;;;;;;;;;;;;1033283;28;2987;-52
2023/04/24 03:25:19;;;;;;;;;;;;;;;;;;1033852;28;3981;-53
2023/04/24 03:25:49;;;;;;;;;;;;;;;;;;1033385;28;3124;-50
2023/04/24 03:26:19;;;;;;;;;;;;;;;;;;1032789;28;4239;-52
2023/04/24 03:26:50;;;;;;;;;;;;;;;;;;1035162;28;1728;-52
2023/04/24 03:27:20;;;;;;;;;;;;;;;;;;1033819;28;3937;-48
2023/04/24 03:27:50;;;;;;;;;;;;;;;;;;1033608;28;3061;-50
2023/04/24 03:28:20;;;;;;;;;;;;;;;;;;1032479;28;3938;-55
2023/04/24 03:28:51;;;;;;;;;;;;;;;;;;1034375;28;3275;-50
2023/04/24 03:29:21;;;;;;;;;;;;;;;;;;1033198;28;3960;-50
2023/04/24 03:29:54;;;;;;;;;;;;;;;;;;1034143;28;2974;-51
2023/04/24 03:30:25;;;;;;;;;;;;;;;;;;1032314;28;3883;-50
2023/04/24 03:30:55;;;;;;;;;;;;;;;;;;1029096;28;4262;-57
2023/04/24 03:31:25;;;;;;;;;;;;;;;;;;1026346;28;2801;-49
2023/04/24 03:31:56;;;;;;;;;;;;;;;;;;1025865;28;3957;-49
2023/04/24 03:32:26;;;;;;;;;;;;;;;;;;1029424;28;2648;-51